sensor_id;sensor_type;location;lat;lon;timestamp;P1;durP1;ratioP1;P2;durP2;ratioP2
32319;SDS011;19080;51.750;5.888;2024-02-23T00:00:39;2.17;;;0.80;;
32319;SDS011;19080;51.750;5.888;2024-02-23T00:03:06;1.25;;;0.52;;
32319;SDS011;19080;51.750;5.888;2024-02-23T00:05:34;1.70;;;0.52;;
32319;SDS011;19080;51.750;5.888;2024-02-23T00:08:00;1.20;;;0.40;;
32319;SDS011;19080;51.750;5.888;2024-02-23T00:10:27;1.13;;;0.60;;
32319;SDS011;19080;51.750;5.888;2024-02-23T00:12:53;2.05;;;1.02;;
32319;SDS011;19080;51.750;5.888;2024-02-23T00:15:20;3.42;;;0.70;;
32319;SDS011;19080;51.750;5.888;2024-02-23T00:17:47;0.60;;;0.60;;
32319;SDS011;19080;51.750;5.888;2024-02-23T00:20:13;1.58;;;0.88;;
32319;SDS011;19080;51.750;5.888;2024-02-23T00:22:41;5.10;;;1.00;;
32319;SDS011;19080;51.750;5.888;2024-02-23T00:25:08;3.08;;;1.10;;
32319;SDS011;19080;51.750;5.888;2024-02-23T00:27:35;3.63;;;1.13;;
32319;SDS011;19080;51.750;5.888;2024-02-23T00:30:01;2.80;;;1.83;;
32319;SDS011;19080;51.750;5.888;2024-02-23T00:32:28;3.38;;;1.50;;
32319;SDS011;19080;51.750;5.888;2024-02-23T00:34:56;6.55;;;2.10;;
32319;SDS011;19080;51.750;5.888;2024-02-23T00:37:23;6.88;;;2.50;;
32319;SDS011;19080;51.750;5.888;2024-02-23T00:39:50;6.80;;;2.22;;
32319;SDS011;19080;51.750;5.888;2024-02-23T00:42:17;5.28;;;2.65;;
32319;SDS011;19080;51.750;5.888;2024-02-23T00:44:44;3.65;;;2.38;;
32319;SDS011;19080;51.750;5.888;2024-02-23T00:47:12;5.65;;;3.22;;
32319;SDS011;19080;51.750;5.888;2024-02-23T00:49:38;4.75;;;3.05;;
32319;SDS011;19080;51.750;5.888;2024-02-23T00:52:05;4.88;;;3.15;;
32319;SDS011;19080;51.750;5.888;2024-02-23T00:54:32;6.10;;;4.03;;
32319;SDS011;19080;51.750;5.888;2024-02-23T00:56:58;8.68;;;3.38;;
32319;SDS011;19080;51.750;5.888;2024-02-23T00:59:25;7.28;;;3.55;;
32319;SDS011;19080;51.750;5.888;2024-02-23T01:01:52;4.88;;;2.90;;
32319;SDS011;19080;51.750;5.888;2024-02-23T01:04:18;7.50;;;3.47;;
32319;SDS011;19080;51.750;5.888;2024-02-23T01:06:45;4.78;;;2.97;;
32319;SDS011;19080;51.750;5.888;2024-02-23T01:09:12;5.78;;;2.53;;
32319;SDS011;19080;51.750;5.888;2024-02-23T01:11:39;2.47;;;2.00;;
32319;SDS011;19080;51.750;5.888;2024-02-23T01:14:06;4.47;;;2.58;;
32319;SDS011;19080;51.750;5.888;2024-02-23T01:16:33;4.85;;;2.38;;
32319;SDS011;19080;51.750;5.888;2024-02-23T01:19:00;7.10;;;2.60;;
32319;SDS011;19080;51.750;5.888;2024-02-23T01:21:26;3.85;;;1.98;;
32319;SDS011;19080;51.750;5.888;2024-02-23T01:23:53;7.10;;;2.10;;
32319;SDS011;19080;51.750;5.888;2024-02-23T01:26:19;2.38;;;1.75;;
32319;SDS011;19080;51.750;5.888;2024-02-23T01:28:46;5.68;;;1.73;;
32319;SDS011;19080;51.750;5.888;2024-02-23T01:31:13;4.18;;;1.80;;
32319;SDS011;19080;51.750;5.888;2024-02-23T01:33:39;5.93;;;1.50;;
32319;SDS011;19080;51.750;5.888;2024-02-23T01:36:06;6.05;;;1.65;;
32319;SDS011;19080;51.750;5.888;2024-02-23T01:38:34;3.45;;;1.48;;
32319;SDS011;19080;51.750;5.888;2024-02-23T01:41:00;5.40;;;1.20;;
32319;SDS011;19080;51.750;5.888;2024-02-23T01:43:28;6.30;;;1.50;;
32319;SDS011;19080;51.750;5.888;2024-02-23T01:45:54;6.28;;;1.90;;
32319;SDS011;19080;51.750;5.888;2024-02-23T01:48:21;4.30;;;1.27;;
32319;SDS011;19080;51.750;5.888;2024-02-23T01:50:48;3.50;;;1.13;;
32319;SDS011;19080;51.750;5.888;2024-02-23T01:53:14;5.90;;;1.58;;
32319;SDS011;19080;51.750;5.888;2024-02-23T01:55:43;4.32;;;0.90;;
32319;SDS011;19080;51.750;5.888;2024-02-23T01:58:12;8.20;;;1.13;;
32319;SDS011;19080;51.750;5.888;2024-02-23T02:00:38;10.27;;;1.60;;
32319;SDS011;19080;51.750;5.888;2024-02-23T02:03:05;6.13;;;1.35;;
32319;SDS011;19080;51.750;5.888;2024-02-23T02:05:37;6.53;;;1.37;;
32319;SDS011;19080;51.750;5.888;2024-02-23T02:08:04;7.00;;;1.20;;
32319;SDS011;19080;51.750;5.888;2024-02-23T02:10:31;4.95;;;1.30;;
32319;SDS011;19080;51.750;5.888;2024-02-23T02:13:01;6.13;;;1.00;;
32319;SDS011;19080;51.750;5.888;2024-02-23T02:15:32;6.45;;;1.33;;
32319;SDS011;19080;51.750;5.888;2024-02-23T02:17:58;7.03;;;1.40;;
32319;SDS011;19080;51.750;5.888;2024-02-23T02:20:25;9.82;;;1.80;;
32319;SDS011;19080;51.750;5.888;2024-02-23T02:22:54;6.47;;;1.13;;
32319;SDS011;19080;51.750;5.888;2024-02-23T02:25:20;5.30;;;1.00;;
32319;SDS011;19080;51.750;5.888;2024-02-23T02:27:47;12.95;;;1.83;;
32319;SDS011;19080;51.750;5.888;2024-02-23T02:30:14;4.25;;;0.95;;
32319;SDS011;19080;51.750;5.888;2024-02-23T02:32:40;7.32;;;1.20;;
32319;SDS011;19080;51.750;5.888;2024-02-23T02:35:09;5.22;;;1.08;;
32319;SDS011;19080;51.750;5.888;2024-02-23T02:37:37;5.22;;;1.50;;
32319;SDS011;19080;51.750;5.888;2024-02-23T02:40:03;6.97;;;1.48;;
32319;SDS011;19080;51.750;5.888;2024-02-23T02:42:31;7.78;;;1.55;;
32319;SDS011;19080;51.750;5.888;2024-02-23T02:44:57;2.90;;;1.20;;
32319;SDS011;19080;51.750;5.888;2024-02-23T02:47:24;12.52;;;1.33;;
32319;SDS011;19080;51.750;5.888;2024-02-23T02:49:51;5.03;;;0.80;;
32319;SDS011;19080;51.750;5.888;2024-02-23T02:52:18;5.30;;;1.10;;
32319;SDS011;19080;51.750;5.888;2024-02-23T02:54:46;5.97;;;1.05;;
32319;SDS011;19080;51.750;5.888;2024-02-23T02:57:14;2.80;;;0.88;;
32319;SDS011;19080;51.750;5.888;2024-02-23T02:59:41;3.67;;;1.55;;
32319;SDS011;19080;51.750;5.888;2024-02-23T03:02:07;6.50;;;1.10;;
32319;SDS011;19080;51.750;5.888;2024-02-23T03:04:34;3.38;;;0.85;;
32319;SDS011;19080;51.750;5.888;2024-02-23T03:07:01;3.60;;;1.10;;
32319;SDS011;19080;51.750;5.888;2024-02-23T03:09:27;4.30;;;1.02;;
32319;SDS011;19080;51.750;5.888;2024-02-23T03:11:54;5.57;;;0.90;;
32319;SDS011;19080;51.750;5.888;2024-02-23T03:14:21;7.95;;;1.13;;
32319;SDS011;19080;51.750;5.888;2024-02-23T03:16:48;5.25;;;1.05;;
32319;SDS011;19080;51.750;5.888;2024-02-23T03:19:16;2.10;;;1.10;;
32319;SDS011;19080;51.750;5.888;2024-02-23T03:21:46;3.03;;;0.82;;
32319;SDS011;19080;51.750;5.888;2024-02-23T03:24:12;3.08;;;1.23;;
32319;SDS011;19080;51.750;5.888;2024-02-23T03:26:39;3.85;;;0.80;;
32319;SDS011;19080;51.750;5.888;2024-02-23T03:29:06;7.32;;;1.17;;
32319;SDS011;19080;51.750;5.888;2024-02-23T03:31:33;5.82;;;1.17;;
32319;SDS011;19080;51.750;5.888;2024-02-23T03:34:00;5.45;;;0.73;;
32319;SDS011;19080;51.750;5.888;2024-02-23T03:36:26;4.65;;;1.33;;
32319;SDS011;19080;51.750;5.888;2024-02-23T03:38:53;4.53;;;1.33;;
32319;SDS011;19080;51.750;5.888;2024-02-23T03:41:19;5.15;;;1.33;;
32319;SDS011;19080;51.750;5.888;2024-02-23T03:43:46;4.53;;;1.20;;
32319;SDS011;19080;51.750;5.888;2024-02-23T03:46:13;6.65;;;1.00;;
32319;SDS011;19080;51.750;5.888;2024-02-23T03:48:41;5.40;;;1.13;;
32319;SDS011;19080;51.750;5.888;2024-02-23T03:51:08;5.13;;;0.80;;
32319;SDS011;19080;51.750;5.888;2024-02-23T03:53:35;5.47;;;1.20;;
32319;SDS011;19080;51.750;5.888;2024-02-23T03:56:02;5.65;;;0.98;;
32319;SDS011;19080;51.750;5.888;2024-02-23T03:58:29;4.38;;;0.80;;
32319;SDS011;19080;51.750;5.888;2024-02-23T04:00:55;5.63;;;0.93;;
32319;SDS011;19080;51.750;5.888;2024-02-23T04:03:22;2.08;;;1.02;;
32319;SDS011;19080;51.750;5.888;2024-02-23T04:05:49;2.05;;;0.80;;
32319;SDS011;19080;51.750;5.888;2024-02-23T04:08:15;3.25;;;1.00;;
32319;SDS011;19080;51.750;5.888;2024-02-23T04:10:42;6.60;;;1.17;;
32319;SDS011;19080;51.750;5.888;2024-02-23T04:13:09;4.70;;;1.20;;
32319;SDS011;19080;51.750;5.888;2024-02-23T04:15:36;3.75;;;1.08;;
32319;SDS011;19080;51.750;5.888;2024-02-23T04:18:03;2.33;;;0.80;;
32319;SDS011;19080;51.750;5.888;2024-02-23T04:20:30;4.30;;;0.93;;
32319;SDS011;19080;51.750;5.888;2024-02-23T04:22:57;5.10;;;1.27;;
32319;SDS011;19080;51.750;5.888;2024-02-23T04:25:24;5.78;;;1.10;;
32319;SDS011;19080;51.750;5.888;2024-02-23T04:27:50;9.95;;;1.25;;
32319;SDS011;19080;51.750;5.888;2024-02-23T04:30:17;6.32;;;0.98;;
32319;SDS011;19080;51.750;5.888;2024-02-23T04:32:43;3.60;;;1.08;;
32319;SDS011;19080;51.750;5.888;2024-02-23T04:35:10;5.95;;;1.10;;
32319;SDS011;19080;51.750;5.888;2024-02-23T04:37:37;6.13;;;1.63;;
32319;SDS011;19080;51.750;5.888;2024-02-23T04:40:04;4.60;;;1.05;;
32319;SDS011;19080;51.750;5.888;2024-02-23T04:42:32;7.57;;;1.98;;
32319;SDS011;19080;51.750;5.888;2024-02-23T04:44:58;3.65;;;1.13;;
32319;SDS011;19080;51.750;5.888;2024-02-23T04:47:25;7.93;;;1.50;;
32319;SDS011;19080;51.750;5.888;2024-02-23T04:49:52;5.25;;;1.13;;
32319;SDS011;19080;51.750;5.888;2024-02-23T04:52:19;6.20;;;1.10;;
32319;SDS011;19080;51.750;5.888;2024-02-23T04:54:46;9.15;;;1.83;;
32319;SDS011;19080;51.750;5.888;2024-02-23T04:57:13;7.30;;;1.70;;
32319;SDS011;19080;51.750;5.888;2024-02-23T04:59:39;7.88;;;1.92;;
32319;SDS011;19080;51.750;5.888;2024-02-23T05:02:06;9.23;;;1.80;;
32319;SDS011;19080;51.750;5.888;2024-02-23T05:04:33;6.82;;;1.50;;
32319;SDS011;19080;51.750;5.888;2024-02-23T05:06:59;2.55;;;1.45;;
32319;SDS011;19080;51.750;5.888;2024-02-23T05:09:26;6.43;;;1.45;;
32319;SDS011;19080;51.750;5.888;2024-02-23T05:11:52;4.60;;;1.67;;
32319;SDS011;19080;51.750;5.888;2024-02-23T05:14:19;7.47;;;1.92;;
32319;SDS011;19080;51.750;5.888;2024-02-23T05:16:46;7.70;;;1.92;;
32319;SDS011;19080;51.750;5.888;2024-02-23T05:19:12;7.97;;;2.10;;
32319;SDS011;19080;51.750;5.888;2024-02-23T05:21:39;9.43;;;1.60;;
32319;SDS011;19080;51.750;5.888;2024-02-23T05:24:06;5.15;;;1.23;;
32319;SDS011;19080;51.750;5.888;2024-02-23T05:26:32;5.30;;;1.27;;
32319;SDS011;19080;51.750;5.888;2024-02-23T05:28:59;8.73;;;1.60;;
32319;SDS011;19080;51.750;5.888;2024-02-23T05:31:43;9.02;;;1.65;;
32319;SDS011;19080;51.750;5.888;2024-02-23T05:34:11;6.32;;;1.33;;
32319;SDS011;19080;51.750;5.888;2024-02-23T05:36:38;5.68;;;1.38;;
32319;SDS011;19080;51.750;5.888;2024-02-23T05:39:04;4.00;;;1.30;;
32319;SDS011;19080;51.750;5.888;2024-02-23T05:41:33;8.27;;;1.63;;
32319;SDS011;19080;51.750;5.888;2024-02-23T05:44:00;4.20;;;1.23;;
32319;SDS011;19080;51.750;5.888;2024-02-23T05:46:30;6.25;;;1.27;;
32319;SDS011;19080;51.750;5.888;2024-02-23T05:48:57;7.38;;;1.35;;
32319;SDS011;19080;51.750;5.888;2024-02-23T05:51:24;4.93;;;1.00;;
32319;SDS011;19080;51.750;5.888;2024-02-23T05:53:50;6.82;;;1.50;;
32319;SDS011;19080;51.750;5.888;2024-02-23T05:56:17;7.47;;;1.10;;
32319;SDS011;19080;51.750;5.888;2024-02-23T05:58:44;4.38;;;1.63;;
32319;SDS011;19080;51.750;5.888;2024-02-23T06:01:10;4.00;;;1.15;;
32319;SDS011;19080;51.750;5.888;2024-02-23T06:03:37;4.65;;;1.08;;
32319;SDS011;19080;51.750;5.888;2024-02-23T06:06:06;8.30;;;1.38;;
32319;SDS011;19080;51.750;5.888;2024-02-23T06:08:35;8.52;;;1.50;;
32319;SDS011;19080;51.750;5.888;2024-02-23T06:11:03;9.15;;;2.20;;
32319;SDS011;19080;51.750;5.888;2024-02-23T06:13:30;9.35;;;1.98;;
32319;SDS011;19080;51.750;5.888;2024-02-23T06:15:57;10.95;;;1.85;;
32319;SDS011;19080;51.750;5.888;2024-02-23T06:18:23;5.65;;;1.45;;
32319;SDS011;19080;51.750;5.888;2024-02-23T06:20:50;5.97;;;2.03;;
32319;SDS011;19080;51.750;5.888;2024-02-23T06:23:17;9.95;;;1.98;;
32319;SDS011;19080;51.750;5.888;2024-02-23T06:25:44;6.97;;;1.40;;
32319;SDS011;19080;51.750;5.888;2024-02-23T06:28:12;7.32;;;1.48;;
32319;SDS011;19080;51.750;5.888;2024-02-23T06:30:39;4.85;;;1.60;;
32319;SDS011;19080;51.750;5.888;2024-02-23T06:33:06;7.65;;;1.20;;
32319;SDS011;19080;51.750;5.888;2024-02-23T06:35:32;8.77;;;1.52;;
32319;SDS011;19080;51.750;5.888;2024-02-23T06:37:59;7.10;;;1.65;;
32319;SDS011;19080;51.750;5.888;2024-02-23T06:40:26;6.72;;;1.20;;
32319;SDS011;19080;51.750;5.888;2024-02-23T06:43:10;7.70;;;1.20;;
32319;SDS011;19080;51.750;5.888;2024-02-23T06:45:37;7.65;;;1.40;;
32319;SDS011;19080;51.750;5.888;2024-02-23T06:48:04;9.68;;;1.52;;
32319;SDS011;19080;51.750;5.888;2024-02-23T06:50:31;6.28;;;1.52;;
32319;SDS011;19080;51.750;5.888;2024-02-23T06:52:58;6.07;;;1.27;;
32319;SDS011;19080;51.750;5.888;2024-02-23T06:55:24;5.38;;;1.58;;
32319;SDS011;19080;51.750;5.888;2024-02-23T06:57:51;6.72;;;1.20;;
32319;SDS011;19080;51.750;5.888;2024-02-23T07:00:18;5.47;;;1.30;;
32319;SDS011;19080;51.750;5.888;2024-02-23T07:02:46;7.05;;;1.70;;
32319;SDS011;19080;51.750;5.888;2024-02-23T07:05:13;3.97;;;1.27;;
32319;SDS011;19080;51.750;5.888;2024-02-23T07:07:40;4.60;;;1.00;;
32319;SDS011;19080;51.750;5.888;2024-02-23T07:10:07;8.93;;;1.38;;
32319;SDS011;19080;51.750;5.888;2024-02-23T07:12:35;12.00;;;1.90;;
32319;SDS011;19080;51.750;5.888;2024-02-23T07:15:01;3.40;;;1.65;;
32319;SDS011;19080;51.750;5.888;2024-02-23T07:17:28;5.13;;;1.13;;
32319;SDS011;19080;51.750;5.888;2024-02-23T07:19:55;9.20;;;1.80;;
32319;SDS011;19080;51.750;5.888;2024-02-23T07:22:29;8.10;;;1.80;;
32319;SDS011;19080;51.750;5.888;2024-02-23T07:24:55;6.40;;;1.45;;
32319;SDS011;19080;51.750;5.888;2024-02-23T07:27:22;5.85;;;1.20;;
32319;SDS011;19080;51.750;5.888;2024-02-23T07:29:49;5.50;;;1.40;;
32319;SDS011;19080;51.750;5.888;2024-02-23T07:32:15;5.88;;;1.40;;
32319;SDS011;19080;51.750;5.888;2024-02-23T07:34:42;5.28;;;1.52;;
32319;SDS011;19080;51.750;5.888;2024-02-23T07:37:09;4.93;;;1.50;;
32319;SDS011;19080;51.750;5.888;2024-02-23T07:39:36;4.53;;;1.30;;
32319;SDS011;19080;51.750;5.888;2024-02-23T07:42:02;5.65;;;1.40;;
32319;SDS011;19080;51.750;5.888;2024-02-23T07:44:29;5.75;;;1.50;;
32319;SDS011;19080;51.750;5.888;2024-02-23T07:46:56;8.52;;;1.55;;
32319;SDS011;19080;51.750;5.888;2024-02-23T07:49:24;9.50;;;1.85;;
32319;SDS011;19080;51.750;5.888;2024-02-23T07:51:51;5.18;;;1.52;;
32319;SDS011;19080;51.750;5.888;2024-02-23T07:54:18;6.90;;;1.92;;
32319;SDS011;19080;51.750;5.888;2024-02-23T07:56:44;3.60;;;1.13;;
32319;SDS011;19080;51.750;5.888;2024-02-23T07:59:11;7.13;;;1.30;;
32319;SDS011;19080;51.750;5.888;2024-02-23T08:01:37;4.35;;;1.05;;
32319;SDS011;19080;51.750;5.888;2024-02-23T08:04:06;5.80;;;1.10;;
32319;SDS011;19080;51.750;5.888;2024-02-23T08:06:33;5.95;;;1.42;;
32319;SDS011;19080;51.750;5.888;2024-02-23T08:08:59;4.22;;;1.33;;
32319;SDS011;19080;51.750;5.888;2024-02-23T08:11:26;7.28;;;1.77;;
32319;SDS011;19080;51.750;5.888;2024-02-23T08:13:53;7.35;;;1.50;;
32319;SDS011;19080;51.750;5.888;2024-02-23T08:16:19;4.20;;;1.25;;
32319;SDS011;19080;51.750;5.888;2024-02-23T08:18:46;8.35;;;1.25;;
32319;SDS011;19080;51.750;5.888;2024-02-23T08:21:13;6.43;;;1.13;;
32319;SDS011;19080;51.750;5.888;2024-02-23T08:23:40;7.50;;;1.27;;
32319;SDS011;19080;51.750;5.888;2024-02-23T08:26:06;8.73;;;1.38;;
32319;SDS011;19080;51.750;5.888;2024-02-23T08:28:33;6.47;;;1.48;;
32319;SDS011;19080;51.750;5.888;2024-02-23T08:31:00;6.07;;;1.23;;
32319;SDS011;19080;51.750;5.888;2024-02-23T08:33:26;8.45;;;1.42;;
32319;SDS011;19080;51.750;5.888;2024-02-23T08:35:53;4.50;;;1.10;;
32319;SDS011;19080;51.750;5.888;2024-02-23T08:38:20;5.55;;;1.30;;
32319;SDS011;19080;51.750;5.888;2024-02-23T08:40:47;5.18;;;1.08;;
32319;SDS011;19080;51.750;5.888;2024-02-23T08:43:14;4.68;;;1.38;;
32319;SDS011;19080;51.750;5.888;2024-02-23T08:45:41;5.88;;;1.60;;
32319;SDS011;19080;51.750;5.888;2024-02-23T08:48:07;8.52;;;1.35;;
32319;SDS011;19080;51.750;5.888;2024-02-23T08:50:35;4.45;;;1.00;;
32319;SDS011;19080;51.750;5.888;2024-02-23T08:53:02;8.60;;;1.85;;
32319;SDS011;19080;51.750;5.888;2024-02-23T08:55:29;5.22;;;0.85;;
32319;SDS011;19080;51.750;5.888;2024-02-23T08:57:55;6.88;;;1.70;;
32319;SDS011;19080;51.750;5.888;2024-02-23T09:00:22;6.57;;;1.20;;
32319;SDS011;19080;51.750;5.888;2024-02-23T09:02:50;10.13;;;1.67;;
32319;SDS011;19080;51.750;5.888;2024-02-23T09:05:17;8.65;;;2.10;;
32319;SDS011;19080;51.750;5.888;2024-02-23T09:07:44;13.57;;;2.00;;
32319;SDS011;19080;51.750;5.888;2024-02-23T09:10:12;6.55;;;1.30;;
32319;SDS011;19080;51.750;5.888;2024-02-23T09:12:38;7.32;;;1.20;;
32319;SDS011;19080;51.750;5.888;2024-02-23T09:15:05;7.43;;;1.23;;
32319;SDS011;19080;51.750;5.888;2024-02-23T09:17:32;8.32;;;1.55;;
32319;SDS011;19080;51.750;5.888;2024-02-23T09:19:59;3.97;;;1.17;;
32319;SDS011;19080;51.750;5.888;2024-02-23T09:22:26;7.07;;;1.58;;
32319;SDS011;19080;51.750;5.888;2024-02-23T09:24:53;5.80;;;1.08;;
32319;SDS011;19080;51.750;5.888;2024-02-23T09:27:22;5.05;;;1.23;;
32319;SDS011;19080;51.750;5.888;2024-02-23T09:29:49;4.80;;;1.25;;
32319;SDS011;19080;51.750;5.888;2024-02-23T09:32:17;4.55;;;1.40;;
32319;SDS011;19080;51.750;5.888;2024-02-23T09:34:43;6.20;;;1.38;;
32319;SDS011;19080;51.750;5.888;2024-02-23T09:37:10;6.57;;;1.50;;
32319;SDS011;19080;51.750;5.888;2024-02-23T09:39:37;8.50;;;1.73;;
32319;SDS011;19080;51.750;5.888;2024-02-23T09:42:04;8.45;;;1.83;;
32319;SDS011;19080;51.750;5.888;2024-02-23T09:44:36;7.60;;;1.70;;
32319;SDS011;19080;51.750;5.888;2024-02-23T09:47:03;5.93;;;1.25;;
32319;SDS011;19080;51.750;5.888;2024-02-23T09:49:36;9.03;;;2.10;;
32319;SDS011;19080;51.750;5.888;2024-02-23T09:52:08;4.72;;;1.13;;
32319;SDS011;19080;51.750;5.888;2024-02-23T09:54:37;6.60;;;1.95;;
32319;SDS011;19080;51.750;5.888;2024-02-23T09:57:06;4.65;;;1.20;;
32319;SDS011;19080;51.750;5.888;2024-02-23T09:59:35;7.03;;;1.52;;
32319;SDS011;19080;51.750;5.888;2024-02-23T10:02:07;5.82;;;0.85;;
32319;SDS011;19080;51.750;5.888;2024-02-23T10:04:38;7.50;;;1.77;;
32319;SDS011;19080;51.750;5.888;2024-02-23T10:07:07;7.20;;;1.58;;
32319;SDS011;19080;51.750;5.888;2024-02-23T10:09:33;3.80;;;1.10;;
32319;SDS011;19080;51.750;5.888;2024-02-23T10:12:01;7.32;;;1.60;;
32319;SDS011;19080;51.750;5.888;2024-02-23T10:14:28;7.07;;;1.00;;
32319;SDS011;19080;51.750;5.888;2024-02-23T10:16:55;6.68;;;1.63;;
32319;SDS011;19080;51.750;5.888;2024-02-23T10:19:22;8.52;;;1.52;;
32319;SDS011;19080;51.750;5.888;2024-02-23T10:21:49;5.72;;;1.60;;
32319;SDS011;19080;51.750;5.888;2024-02-23T10:24:16;2.05;;;0.93;;
32319;SDS011;19080;51.750;5.888;2024-02-23T10:26:43;5.40;;;1.08;;
32319;SDS011;19080;51.750;5.888;2024-02-23T10:29:11;7.60;;;1.15;;
32319;SDS011;19080;51.750;5.888;2024-02-23T10:31:39;6.28;;;1.27;;
32319;SDS011;19080;51.750;5.888;2024-02-23T10:34:07;5.38;;;0.98;;
32319;SDS011;19080;51.750;5.888;2024-02-23T10:39:08;5.10;;;0.60;;
32319;SDS011;19080;51.750;5.888;2024-02-23T10:41:36;2.35;;;1.02;;
32319;SDS011;19080;51.750;5.888;2024-02-23T10:44:05;1.40;;;0.70;;
32319;SDS011;19080;51.750;5.888;2024-02-23T10:46:33;2.80;;;1.35;;
32319;SDS011;19080;51.750;5.888;2024-02-23T10:49:00;4.72;;;1.02;;
32319;SDS011;19080;51.750;5.888;2024-02-23T10:51:28;8.65;;;1.30;;
32319;SDS011;19080;51.750;5.888;2024-02-23T10:53:54;2.22;;;0.98;;
32319;SDS011;19080;51.750;5.888;2024-02-23T10:56:21;4.75;;;1.00;;
32319;SDS011;19080;51.750;5.888;2024-02-23T10:58:50;4.70;;;0.90;;
32319;SDS011;19080;51.750;5.888;2024-02-23T11:01:17;5.63;;;0.80;;
32319;SDS011;19080;51.750;5.888;2024-02-23T11:03:45;7.88;;;1.40;;
32319;SDS011;19080;51.750;5.888;2024-02-23T11:06:16;4.35;;;0.82;;
32319;SDS011;19080;51.750;5.888;2024-02-23T11:08:47;2.80;;;0.63;;
32319;SDS011;19080;51.750;5.888;2024-02-23T11:11:15;3.70;;;0.80;;
32319;SDS011;19080;51.750;5.888;2024-02-23T11:13:44;4.82;;;1.15;;
32319;SDS011;19080;51.750;5.888;2024-02-23T11:16:20;3.22;;;0.95;;
32319;SDS011;19080;51.750;5.888;2024-02-23T11:18:49;3.33;;;0.93;;
32319;SDS011;19080;51.750;5.888;2024-02-23T11:21:33;4.47;;;1.13;;
32319;SDS011;19080;51.750;5.888;2024-02-23T11:24:04;3.78;;;0.80;;
32319;SDS011;19080;51.750;5.888;2024-02-23T11:26:31;3.00;;;1.05;;
32319;SDS011;19080;51.750;5.888;2024-02-23T11:29:09;3.65;;;1.05;;
32319;SDS011;19080;51.750;5.888;2024-02-23T11:31:45;1.73;;;0.65;;
32319;SDS011;19080;51.750;5.888;2024-02-23T11:34:13;4.50;;;1.05;;
32319;SDS011;19080;51.750;5.888;2024-02-23T11:36:39;4.25;;;1.10;;
32319;SDS011;19080;51.750;5.888;2024-02-23T11:39:06;4.05;;;1.13;;
32319;SDS011;19080;51.750;5.888;2024-02-23T11:41:37;5.88;;;1.00;;
32319;SDS011;19080;51.750;5.888;2024-02-23T11:44:04;3.90;;;1.20;;
32319;SDS011;19080;51.750;5.888;2024-02-23T11:46:33;3.45;;;0.77;;
32319;SDS011;19080;51.750;5.888;2024-02-23T11:49:00;3.65;;;1.15;;
32319;SDS011;19080;51.750;5.888;2024-02-23T11:51:27;3.65;;;1.00;;
32319;SDS011;19080;51.750;5.888;2024-02-23T11:53:55;4.63;;;1.15;;
32319;SDS011;19080;51.750;5.888;2024-02-23T11:56:24;4.13;;;1.20;;
32319;SDS011;19080;51.750;5.888;2024-02-23T11:58:52;3.60;;;0.80;;
32319;SDS011;19080;51.750;5.888;2024-02-23T12:01:20;3.72;;;1.10;;
32319;SDS011;19080;51.750;5.888;2024-02-23T12:03:46;6.18;;;1.35;;
32319;SDS011;19080;51.750;5.888;2024-02-23T12:06:14;3.72;;;0.95;;
32319;SDS011;19080;51.750;5.888;2024-02-23T12:08:44;5.05;;;1.00;;
32319;SDS011;19080;51.750;5.888;2024-02-23T12:11:13;3.40;;;1.10;;
32319;SDS011;19080;51.750;5.888;2024-02-23T12:13:40;4.38;;;1.15;;
32319;SDS011;19080;51.750;5.888;2024-02-23T12:16:07;6.18;;;1.50;;
32319;SDS011;19080;51.750;5.888;2024-02-23T12:18:35;2.88;;;1.20;;
32319;SDS011;19080;51.750;5.888;2024-02-23T12:21:06;4.47;;;1.17;;
32319;SDS011;19080;51.750;5.888;2024-02-23T12:23:43;3.03;;;1.25;;
32319;SDS011;19080;51.750;5.888;2024-02-23T12:26:15;5.90;;;0.90;;
32319;SDS011;19080;51.750;5.888;2024-02-23T12:28:43;4.82;;;0.90;;
32319;SDS011;19080;51.750;5.888;2024-02-23T12:31:11;3.42;;;1.30;;
32319;SDS011;19080;51.750;5.888;2024-02-23T12:33:38;1.90;;;0.98;;
32319;SDS011;19080;51.750;5.888;2024-02-23T12:36:06;6.32;;;1.27;;
32319;SDS011;19080;51.750;5.888;2024-02-23T12:38:35;5.13;;;1.02;;
32319;SDS011;19080;51.750;5.888;2024-02-23T12:41:02;3.42;;;1.17;;
32319;SDS011;19080;51.750;5.888;2024-02-23T12:43:29;4.25;;;1.52;;
32319;SDS011;19080;51.750;5.888;2024-02-23T12:45:57;4.32;;;1.33;;
32319;SDS011;19080;51.750;5.888;2024-02-23T12:48:24;2.53;;;1.35;;
32319;SDS011;19080;51.750;5.888;2024-02-23T12:50:51;5.85;;;1.80;;
32319;SDS011;19080;51.750;5.888;2024-02-23T12:56:06;2.85;;;0.93;;
32319;SDS011;19080;51.750;5.888;2024-02-23T12:58:38;3.90;;;1.67;;
32319;SDS011;19080;51.750;5.888;2024-02-23T13:01:06;2.67;;;1.40;;
32319;SDS011;19080;51.750;5.888;2024-02-23T13:03:34;5.80;;;1.15;;
32319;SDS011;19080;51.750;5.888;2024-02-23T13:06:02;2.75;;;1.20;;
32319;SDS011;19080;51.750;5.888;2024-02-23T13:08:30;3.67;;;1.15;;
32319;SDS011;19080;51.750;5.888;2024-02-23T13:10:57;4.05;;;1.20;;
32319;SDS011;19080;51.750;5.888;2024-02-23T13:13:24;7.70;;;1.33;;
32319;SDS011;19080;51.750;5.888;2024-02-23T13:15:51;3.60;;;1.02;;
32319;SDS011;19080;51.750;5.888;2024-02-23T13:18:19;6.50;;;1.60;;
32319;SDS011;19080;51.750;5.888;2024-02-23T13:20:46;3.47;;;1.10;;
32319;SDS011;19080;51.750;5.888;2024-02-23T13:23:13;6.13;;;1.10;;
32319;SDS011;19080;51.750;5.888;2024-02-23T13:25:42;4.60;;;1.40;;
32319;SDS011;19080;51.750;5.888;2024-02-23T13:28:10;5.30;;;1.65;;
32319;SDS011;19080;51.750;5.888;2024-02-23T13:30:37;3.58;;;1.05;;
32319;SDS011;19080;51.750;5.888;2024-02-23T13:33:05;4.75;;;1.30;;
32319;SDS011;19080;51.750;5.888;2024-02-23T13:35:34;6.50;;;1.40;;
32319;SDS011;19080;51.750;5.888;2024-02-23T13:38:01;2.47;;;0.90;;
32319;SDS011;19080;51.750;5.888;2024-02-23T13:40:30;5.80;;;1.10;;
32319;SDS011;19080;51.750;5.888;2024-02-23T13:42:57;5.40;;;0.93;;
32319;SDS011;19080;51.750;5.888;2024-02-23T13:45:24;2.55;;;1.05;;
32319;SDS011;19080;51.750;5.888;2024-02-23T13:47:55;5.43;;;1.08;;
32319;SDS011;19080;51.750;5.888;2024-02-23T13:50:31;6.13;;;2.70;;
32319;SDS011;19080;51.750;5.888;2024-02-23T13:53:01;8.38;;;2.72;;
32319;SDS011;19080;51.750;5.888;2024-02-23T13:55:28;4.75;;;2.03;;
32319;SDS011;19080;51.750;5.888;2024-02-23T13:57:55;3.28;;;0.80;;
32319;SDS011;19080;51.750;5.888;2024-02-23T14:00:21;4.50;;;1.52;;
32319;SDS011;19080;51.750;5.888;2024-02-23T14:02:48;5.10;;;1.00;;
32319;SDS011;19080;51.750;5.888;2024-02-23T14:05:15;5.25;;;1.40;;
32319;SDS011;19080;51.750;5.888;2024-02-23T14:07:44;9.07;;;1.80;;
32319;SDS011;19080;51.750;5.888;2024-02-23T14:10:11;4.25;;;1.33;;
32319;SDS011;19080;51.750;5.888;2024-02-23T14:12:38;4.82;;;1.83;;
32319;SDS011;19080;51.750;5.888;2024-02-23T14:15:04;3.25;;;1.20;;
32319;SDS011;19080;51.750;5.888;2024-02-23T14:17:32;4.60;;;1.40;;
32319;SDS011;19080;51.750;5.888;2024-02-23T14:20:01;2.58;;;1.30;;
32319;SDS011;19080;51.750;5.888;2024-02-23T14:22:29;3.40;;;1.13;;
32319;SDS011;19080;51.750;5.888;2024-02-23T14:24:56;3.35;;;1.33;;
32319;SDS011;19080;51.750;5.888;2024-02-23T14:27:22;5.43;;;1.10;;
32319;SDS011;19080;51.750;5.888;2024-02-23T14:29:49;2.60;;;1.10;;
32319;SDS011;19080;51.750;5.888;2024-02-23T14:32:17;3.92;;;1.10;;
32319;SDS011;19080;51.750;5.888;2024-02-23T14:34:44;10.70;;;1.35;;
32319;SDS011;19080;51.750;5.888;2024-02-23T14:37:12;4.10;;;1.13;;
32319;SDS011;19080;51.750;5.888;2024-02-23T14:39:38;6.22;;;1.25;;
32319;SDS011;19080;51.750;5.888;2024-02-23T14:42:05;7.50;;;1.00;;
32319;SDS011;19080;51.750;5.888;2024-02-23T14:44:35;4.03;;;1.50;;
32319;SDS011;19080;51.750;5.888;2024-02-23T14:47:03;1.83;;;1.15;;
32319;SDS011;19080;51.750;5.888;2024-02-23T14:49:31;3.63;;;1.42;;
32319;SDS011;19080;51.750;5.888;2024-02-23T14:51:59;4.88;;;1.60;;
32319;SDS011;19080;51.750;5.888;2024-02-23T14:54:25;7.63;;;1.58;;